Last 30 Days

AM-Roundhouse Btm 6950'

Daily Data | America/Los_Angeles
as of 8/31/26 4:31 PM PDT
Date Daily Max Temp (°F) Time of Max Temp Daily Min Temp (°F) Time of Min Temp Wind Spd (mph) Daily Max Wind (mph) Max Wind Dir (°) Time of Max Wind Daily Rain (In) Season Precip (In) Snow Depth (HS) (in) Daily Max RH (%) Daily Min RH (%) Wet Bulb (°F) WetB Hrs <28F (hrs) Min Press (inHg) Time of Min Press MinBV Day (V)
8/30/26 69.4 1453 46.3 0724 2.9 15.7 ESE | 123 1458 0.00 53.55 3.0 54 24 44.7 0.0 30.12 1750 12.9
8/29/26 65.2 1444 50.7 0659 3.7 21.8 SSE | 160 1232 0.00 53.55 2.1 80 26 47.9 0.0 30.13 1635 13.1
8/28/26 60.7 0218 51.3 1053 1.9 11.3 SSE | 168 2027 0.08 53.55 1.6 92 40 50.5 0.0 30.18 2355 12.9
8/27/26 74.4 1247 60.3 2359 4.3 27.3 SE | 134 1421 0.00 53.47 2.6 45 19 48.2 0.0 30.21 2350 12.9
8/26/26 75.9 1442 58.7 0355 3.7 19.9 SSE | 148 1135 0.00 53.47 3.0 59 23 51.8 0.0 30.24 1630 13.0
8/25/26 73.4 1343 56.4 0328 3.6 20.6 S | 180 1456 0.00 53.47 2.1 49 30 50.4 0.0 30.27 0425 13.1
8/24/26 74.9 1416 59.7 2236 3.1 19.1 SSE | 151 1351 0.00 53.47 3.2 49 31 51.3 0.0 30.20 0525 13.1
8/23/26 75.7 1432 60.6 0414 3.4 17.2 SE | 141 1858 0.00 53.47 2.6 49 28 51.3 0.0 30.19 1800 12.6
8/22/26 73.8 1303 61.1 0314 3.9 23.2 SSE | 147 1528 0.00 53.47 1.4 43 30 50.4 0.0 30.23 1915 12.6
8/21/26 77.0 1321 63.8 0215 4.1 18.4 SSE | 160 1519 0.00 53.47 2.4 41 25 51.1 0.0 30.25 1620 13.0
8/20/26 78.3 1426 59.4 0622 3.4 18.4 SSE | 161 1540 0.00 53.47 2.8 39 19 49.6 0.0 30.22 0535 12.9
8/19/26 78.4 1358 56.7 0522 3.3 16.8 SSE | 160 1553 0.00 53.47 3.8 48 24 50.3 0.0 30.20 1635 12.9
8/18/26 76.5 1318 55.5 0504 2.6 15.9 SSE | 155 1434 0.00 53.47 3.2 55 21 49.4 0.0 30.24 1850 12.9
8/17/26 73.6 1154 58.2 2232 2.8 19.0 S | 185 1745 0.00 53.47 2.4 50 28 49.8 0.0 30.24 1555 12.9
8/16/26 72.8 1436 52.0 0640 2.3 16.8 SSE | 163 1439 0.00 53.47 2.9 48 23 47.3 0.0 30.25 1855 12.8
8/15/26 69.3 1329 52.3 0455 2.9 15.5 N | 1 1533 0.00 53.47 2.7 60 28 47.1 0.0 30.19 0240 12.8
8/14/26 67.0 1456 52.1 0329 3.4 17.5 SSE | 167 1600 0.00 53.47 2.8 68 30 49.2 0.0 30.11 0001 12.9
8/13/26 66.5 1330 57.0 2115 3.9 21.2 SE | 138 1344 0.00 53.47 2.8 66 48 51.6 0.0 30.04 1525 12.9
8/12/26 73.2 1259 59.7 0543 3.4 21.8 S | 176 1504 0.00 53.47 2.8 55 17 50.0 0.0 30.07 2355 13.0
8/11/26 79.2 1301 63.1 2144 3.9 17.7 SSE | 150 1511 0.00 53.47 3.2 35 16 49.7 0.0 30.20 1635 13.0
8/10/26 80.4 1326 64.2 2132 3.5 18.8 SE | 130 1634 0.00 53.47 2.7 42 18 51.6 0.0 30.19 0300 13.0
8/9/26 83.2 1150 65.3 2245 3.2 16.6 SSE | 167 1721 0.00 53.47 2.8 35 14 51.7 0.0 30.18 1840 13.0
8/8/26 86.2 1442 67.1 0623 2.3 15.8 NNW | 345 1418 0.00 53.47 2.7 46 20 54.4 0.0 30.24 1905 13.0
8/7/26 85.9 1428 62.3 0712 2.5 13.3 SSE | 147 1804 0.00 53.47 2.9 41 15 53.2 0.0 30.29 1615 13.0
8/6/26 82.7 1346 62.6 0414 3.5 18.6 SE | 143 1632 0.00 53.47 1.9 36 15 51.0 0.0 30.24 0140 12.8
8/5/26 82.0 1441 57.3 0559 3.4 16.6 S | 170 1525 0.00 53.47 3.5 39 14 48.8 0.0 30.19 0330 12.9
8/4/26 81.4 1515 58.1 0702 2.6 13.5 S | 180 1540 0.00 53.47 3.0 35 12 49.2 0.0 30.15 0410 12.9
8/3/26 81.1 1433 53.4 0646 2.3 14.5 SSE | 159 1707 0.00 53.47 2.8 44 12 48.2 0.0 30.14 1930 10.8
8/2/26 79.4 1326 55.7 0630 3.1 20.6 SE | 137 1510 0.00 53.47 2.9 42 11 47.6 0.0 30.15 1940 11.9
8/1/26 81.4 1510 58.0 0542 3.2 16.6 S | 172 1512 0.00 53.47 2.9 37 10 47.7 0.0 30.24 2355 12.4
Max 86.2 - 67.1 - 4.3 27.3 - - 0.08 53.55 3.8 92 48 54.4 0.0 30.29 - 13.1
Avg - - - - 3.2 - - - - - 2.7 - - 49.8 - - - -
Min 60.7 - 46.3 - 1.9 11.3 - - 0.00 53.47 1.4 35 10 44.7 0.0 30.04 - 10.8